.
WxDataArchive / Data Records for 2007-03-14
2007-03-13 March 2007 2007-03-15

Data Records for Wednesday, 14 March 2007

Time	Temp	Chill	HIndex	Humid	Dewpt	 Wind 	HiWind	WindDir	Rain 	Barom 
-----	----	-----	------	-----	-----	------	------	-------	-----	----- 
00:00	63.9	63.9	63.9	70	53.9	3	6	248	0.00	29.844 
00:05	63.7	63.7	63.7	71	54.1	3	9	248	0.00	29.839 
00:10	63.5	63.5	63.5	71	53.9	3	6	248	0.00	29.838 
00:15	63.5	63.5	63.5	71	53.9	3	10	248	0.00	29.838 
00:20	63.4	63.4	63.4	71	53.8	3	6	248	0.00	29.838 
00:25	63.2	63.2	63.2	72	54.0	2	5	248	0.00	29.836 
00:30	62.9	62.9	62.9	72	53.7	3	6	248	0.00	29.833 
00:35	62.9	62.9	62.9	72	53.7	3	6	248	0.00	29.830 
00:40	62.7	62.7	62.7	73	53.9	3	7	248	0.00	29.830 
00:45	62.6	62.6	62.6	73	53.8	3	6	248	0.00	29.828 
00:50	62.4	62.4	62.4	73	53.6	3	5	248	0.00	29.829 
00:55	62.3	62.3	62.3	73	53.5	3	7	248	0.00	29.827 
01:00	62.1	62.1	62.1	74	53.7	2	5	248	0.00	29.826 
01:05	62.0	62.0	62.0	74	53.6	3	6	248	0.00	29.826 
01:10	61.8	61.8	61.8	75	53.8	3	7	248	0.00	29.826 
01:15	61.8	61.8	61.8	76	54.1	3	7	248	0.00	29.826 
01:20	61.8	61.8	61.8	76	54.1	4	9	248	0.00	29.825 
01:25	62.0	62.0	62.0	76	54.3	4	9	248	0.00	29.825 
01:30	62.0	62.0	62.0	76	54.3	3	10	248	0.00	29.825 
01:35	62.0	62.0	62.0	77	54.7	4	9	248	0.00	29.825 
01:40	61.8	61.8	61.8	77	54.5	3	5	248	0.00	29.825 
01:45	61.6	61.6	61.6	78	54.7	2	5	248	0.00	29.823 
01:50	61.5	61.5	61.5	79	54.9	3	9	248	0.00	29.820 
01:55	61.6	61.6	61.6	79	55.0	3	7	248	0.00	29.817 
02:00	61.6	61.6	61.6	79	55.0	3	11	248	0.00	29.816 
02:05	61.6	61.6	61.6	80	55.4	3	9	248	0.00	29.814 
02:10	61.6	61.6	61.6	80	55.4	3	7	248	0.00	29.810 
02:15	61.5	61.5	61.5	80	55.3	3	12	248	0.00	29.810 
02:20	61.5	61.5	61.5	81	55.6	4	7	248	0.00	29.809 
02:25	61.5	61.5	61.5	81	55.6	3	10	248	0.00	29.808 
02:30	61.5	61.5	61.5	81	55.6	4	9	248	0.00	29.806 
02:35	61.3	61.3	61.3	81	55.4	3	11	248	0.00	29.807 
02:40	61.3	61.3	61.3	81	55.4	4	10	248	0.00	29.803 
02:45	61.3	61.3	61.3	81	55.4	4	8	248	0.00	29.799 
02:50	61.5	61.5	61.5	81	55.6	3	7	248	0.00	29.795 
02:55	61.5	61.5	61.5	81	55.6	4	11	248	0.00	29.795 
03:00	61.6	61.6	61.6	81	55.7	4	10	248	0.00	29.794 
03:05	61.6	61.6	61.6	81	55.7	4	11	248	0.00	29.793 
03:10	61.6	61.6	61.6	81	55.7	4	7	248	0.00	29.792 
03:15	61.6	61.6	61.6	81	55.7	4	9	248	0.00	29.792 
03:20	61.6	61.6	61.6	81	55.7	3	9	248	0.00	29.791 
03:25	61.6	61.6	61.6	81	55.7	5	10	248	0.00	29.790 
03:30	61.8	61.8	61.8	82	56.2	4	11	248	0.00	29.788 
03:35	61.8	61.8	61.8	82	56.2	5	15	248	0.00	29.787 
03:40	61.8	61.8	61.8	82	56.2	5	10	248	0.00	29.782 
03:45	61.8	61.8	61.8	82	56.2	4	11	248	0.00	29.785 
03:50	61.8	61.8	61.8	82	56.2	4	9	248	0.00	29.783 
03:55	61.8	61.8	61.8	82	56.2	4	8	248	0.00	29.781 
04:00	61.6	61.6	61.6	82	56.0	4	10	248	0.00	29.779 
04:05	61.6	61.6	61.6	82	56.0	4	9	248	0.00	29.778 
04:10	61.6	61.6	61.6	83	56.4	4	10	248	0.00	29.777 
04:15	61.5	61.5	61.5	83	56.3	3	9	248	0.00	29.776 
04:20	61.5	61.5	61.5	83	56.3	4	9	248	0.00	29.777 
04:25	61.3	61.3	61.3	84	56.4	3	6	248	0.00	29.778 
04:30	61.3	61.3	61.3	84	56.4	3	9	248	0.00	29.777 
04:35	61.3	61.3	61.3	84	56.4	4	7	248	0.00	29.777 
04:40	61.2	61.2	61.2	84	56.3	3	8	248	0.00	29.778 
04:45	61.2	61.2	61.2	85	56.6	4	7	248	0.00	29.777 
04:50	61.2	61.2	61.2	85	56.6	3	7	248	0.00	29.778 
04:55	61.0	61.0	61.0	86	56.8	3	7	248	0.00	29.778 
05:00	61.0	61.0	61.0	86	56.8	3	6	248	0.00	29.778 
05:05	61.0	61.0	61.0	86	56.8	3	6	248	0.00	29.780 
05:10	61.0	61.0	61.0	87	57.1	3	9	248	0.00	29.782 
05:15	61.0	61.0	61.0	87	57.1	4	10	248	0.00	29.782 
05:20	61.0	61.0	61.0	87	57.1	3	7	248	0.00	29.784 
05:25	61.2	61.2	61.2	87	57.3	4	8	248	0.00	29.783 
05:30	61.2	61.2	61.2	87	57.3	4	10	248	0.00	29.782 
05:35	61.2	61.2	61.2	87	57.3	4	10	270	0.00	29.782 
05:40	61.2	61.2	61.2	87	57.3	2	7	248	0.00	29.782 
05:45	61.2	61.2	61.2	87	57.3	3	7	248	0.00	29.784 
05:50	61.0	61.0	61.0	87	57.1	3	6	248	0.00	29.783 
05:55	61.0	61.0	61.0	87	57.1	4	9	248	0.00	29.782 
06:00	61.0	61.0	61.0	87	57.1	4	9	248	0.00	29.780 
06:05	61.0	61.0	61.0	87	57.1	4	9	248	0.00	29.783 
06:10	60.9	60.9	60.9	88	57.3	3	7	248	0.00	29.783 
06:15	60.9	60.9	60.9	88	57.3	2	5	248	0.00	29.783 
06:20	60.9	60.9	60.9	88	57.3	3	10	248	0.00	29.783 
06:25	60.9	60.9	60.9	88	57.3	3	7	248	0.00	29.784 
06:30	60.9	60.9	60.9	88	57.3	3	7	248	0.00	29.785 
06:35	60.7	60.7	60.7	88	57.1	2	7	248	0.00	29.786 
06:40	60.9	60.9	60.9	88	57.3	3	8	248	0.00	29.786 
06:45	60.9	60.9	60.9	87	57.0	2	5	248	0.00	29.787 
06:50	61.0	61.0	61.0	87	57.1	3	10	248	0.00	29.793 
06:55	61.0	61.0	61.0	87	57.1	4	9	248	0.00	29.794 
07:00	61.2	61.2	61.2	87	57.3	3	7	248	0.00	29.795 
07:05	61.2	61.2	61.2	87	57.3	3	6	248	0.00	29.798 
07:10	61.0	61.0	61.0	87	57.1	2	5	248	0.00	29.798 
07:15	61.2	61.2	61.2	87	57.3	4	8	248	0.00	29.799 
07:20	61.0	61.0	61.0	87	57.1	2	10	248	0.00	29.799 
07:25	61.0	61.0	61.0	87	57.1	2	5	248	0.00	29.800 
07:30	61.0	61.0	61.0	88	57.4	3	10	248	0.00	29.800 
07:35	61.0	61.0	61.0	87	57.1	3	9	248	0.00	29.801 
07:40	61.0	61.0	61.0	87	57.1	3	7	248	0.00	29.801 
07:45	61.0	61.0	61.0	87	57.1	3	6	248	0.00	29.802 
07:50	61.2	61.2	61.2	87	57.3	4	10	248	0.00	29.802 
07:55	61.2	61.2	61.2	87	57.3	4	10	248	0.00	29.802 
08:00	61.3	61.3	61.3	87	57.4	4	11	248	0.00	29.801 
08:05	61.3	61.3	61.3	87	57.4	3	9	248	0.00	29.802 
08:10	61.5	61.5	61.5	86	57.3	4	10	248	0.00	29.801 
08:15	61.5	61.5	61.5	86	57.3	3	6	248	0.00	29.801 
08:20	61.5	61.5	61.5	86	57.3	3	9	248	0.00	29.800 
08:25	61.6	61.6	61.6	86	57.4	3	7	248	0.00	29.801 
08:30	61.8	61.8	61.8	85	57.2	3	7	248	0.00	29.801 
08:35	62.0	62.0	62.0	85	57.4	3	7	248	0.00	29.802 
08:40	62.1	62.1	62.1	85	57.5	4	10	248	0.00	29.801 
08:45	62.3	62.3	62.3	85	57.7	3	11	248	0.00	29.801 
08:50	62.3	62.3	62.3	84	57.4	3	9	270	0.00	29.802 
08:55	62.4	62.4	62.4	84	57.5	3	10	248	0.00	29.804 
09:00	62.6	62.6	62.6	84	57.7	4	10	248	0.00	29.804 
09:05	62.7	62.7	62.7	83	57.5	5	12	270	0.00	29.802 
09:10	62.9	62.9	62.9	83	57.7	4	10	248	0.00	29.805 
09:15	63.2	63.2	63.2	82	57.6	5	11	248	0.00	29.804 
09:20	63.4	63.4	63.4	81	57.5	4	9	270	0.00	29.802 
09:25	63.7	63.7	63.7	81	57.8	4	9	270	0.00	29.797 
09:30	63.9	63.9	63.9	81	57.9	5	12	248	0.00	29.797 
09:35	64.0	64.0	64.0	80	57.7	3	11	248	0.00	29.796 
09:40	64.2	64.2	64.2	80	57.9	4	10	248	0.00	29.796 
09:45	64.3	64.3	64.3	79	57.6	5	10	248	0.00	29.794 
09:50	64.3	64.3	64.3	79	57.6	4	7	248	0.00	29.794 
09:55	64.5	64.5	64.5	78	57.5	4	11	248	0.00	29.791 
10:00	64.7	64.7	64.7	78	57.7	4	7	270	0.00	29.793 
10:05	65.0	65.0	65.0	78	58.0	4	11	270	0.00	29.794 
10:10	65.5	65.5	65.5	79	58.8	4	9	248	0.00	29.792 
10:15	65.6	65.6	65.6	74	57.1	4	12	248	0.00	29.784 
10:20	65.6	65.6	65.6	75	57.5	4	12	248	0.00	29.783 
10:25	65.5	65.5	65.5	74	57.0	5	10	248	0.00	29.781 
10:30	65.6	65.6	65.6	74	57.1	5	11	270	0.00	29.781 
10:35	65.8	65.8	65.8	73	56.9	6	12	270	0.00	29.781 
10:40	66.6	66.6	66.6	73	57.7	3	5	270	0.00	29.780 
10:45	66.8	66.8	66.8	71	57.1	5	12	270	0.00	29.778 
10:50	66.8	66.8	66.8	70	56.7	5	11	270	0.00	29.779 
10:55	67.1	67.1	67.1	71	57.4	4	10	270	0.00	29.778 
11:00	67.1	67.1	67.1	70	57.0	6	13	270	0.00	29.775 
11:05	67.4	67.4	67.4	70	57.3	5	11	270	0.00	29.774 
11:10	67.8	67.8	67.8	68	56.8	5	11	270	0.00	29.769 
11:15	68.3	68.3	68.3	68	57.3	3	7	270	0.00	29.771 
11:20	68.3	68.3	68.3	66	56.5	6	11	248	0.00	29.771 
11:25	68.4	68.4	68.4	67	57.0	5	11	270	0.00	29.773 
11:30	68.8	68.8	68.8	66	57.0	4	7	248	0.00	29.770 
11:35	68.9	68.9	68.9	65	56.6	4	11	270	0.00	29.767 
11:40	69.1	69.1	69.1	69	58.5	6	12	248	0.00	29.765 
11:45	69.1	69.1	69.1	65	56.8	5	13	248	0.00	29.765 
11:50	68.8	68.8	68.8	65	56.5	5	12	248	0.00	29.764 
11:55	69.1	69.1	69.1	65	56.8	5	10	270	0.00	29.764 
12:00	69.4	69.4	69.4	64	56.7	6	15	270	0.00	29.765 
12:05	69.6	69.6	69.6	63	56.4	6	13	248	0.00	29.765 
12:10	70.3	70.3	70.3	63	57.1	4	10	270	0.00	29.764 
12:15	70.6	70.6	70.6	62	56.9	5	16	270	0.00	29.765 
12:20	70.9	70.9	70.9	62	57.2	4	11	270	0.00	29.763 
12:25	71.1	71.1	71.1	60	56.5	6	16	248	0.00	29.763 
12:30	71.1	71.1	71.1	61	57.0	4	11	270	0.00	29.762 
12:35	71.1	71.1	71.1	59	56.0	6	13	248	0.00	29.762 
12:40	71.1	71.1	71.1	61	57.0	3	9	248	0.00	29.763 
12:45	71.5	71.5	71.5	59	56.4	5	13	270	0.00	29.762 
12:50	71.1	71.1	71.1	60	56.5	6	15	270	0.00	29.763 
12:55	71.3	71.3	71.3	61	57.1	4	10	248	0.00	29.763 
13:00	71.6	71.6	71.6	59	56.5	5	16	270	0.00	29.761 
13:05	71.6	71.6	71.6	60	57.0	5	13	270	0.00	29.761 
13:10	72.3	72.3	72.3	58	56.7	5	14	248	0.00	29.759 
13:15	72.3	72.3	72.3	57	56.2	6	16	248	0.00	29.757 
13:20	72.3	72.3	72.3	58	56.7	6	12	270	0.00	29.757 
13:25	73.0	73.0	73.0	56	56.4	4	11	248	0.00	29.753 
13:30	73.2	73.2	73.2	56	56.5	5	12	270	0.00	29.755 
13:35	73.5	73.5	73.5	57	57.3	5	11	248	0.00	29.755 
13:40	73.0	73.0	73.0	57	56.9	5	13	248	0.00	29.756 
13:45	72.7	72.7	72.7	58	57.1	3	10	270	0.00	29.757 
13:50	72.5	72.5	72.5	58	56.9	5	14	270	0.00	29.754 
13:55	72.5	72.5	72.5	58	56.9	4	15	248	0.00	29.751 
14:00	72.3	72.3	72.3	57	56.2	5	14	248	0.00	29.749 
14:05	72.0	72.0	72.0	58	56.4	6	12	270	0.00	29.746 
14:10	72.0	72.0	72.0	58	56.4	4	14	248	0.00	29.746 
14:15	71.8	71.8	71.8	58	56.2	6	15	270	0.00	29.747 
14:20	71.8	71.8	71.8	58	56.2	5	11	270	0.00	29.746 
14:25	71.8	71.8	71.8	57	55.7	8	17	248	0.00	29.746 
14:30	72.0	72.0	72.0	57	55.9	5	12	270	0.00	29.745 
14:35	72.1	72.1	72.1	56	55.5	5	9	270	0.00	29.741 
14:40	72.5	72.5	72.5	56	55.9	5	12	270	0.00	29.739 
14:45	73.0	73.0	73.0	54	55.4	4	7	270	0.00	29.737 
14:50	73.2	73.2	73.2	55	56.0	4	10	270	0.00	29.737 
14:55	73.0	73.0	73.0	55	55.9	4	9	270	0.00	29.735 
15:00	72.5	72.5	72.5	56	55.9	6	12	270	0.00	29.735 
15:05	72.5	72.5	72.5	57	56.4	4	9	270	0.00	29.734 
15:10	72.3	72.3	72.3	56	55.7	5	13	248	0.00	29.734 
15:15	72.1	72.1	72.1	56	55.5	5	10	248	0.00	29.734 
15:20	72.1	72.1	72.1	57	56.0	3	6	270	0.00	29.733 
15:25	72.1	72.1	72.1	56	55.5	5	11	248	0.00	29.731 
15:30	72.1	72.1	72.1	55	55.0	5	11	270	0.00	29.730 
15:35	72.0	72.0	72.0	56	55.4	4	10	270	0.00	29.729 
15:40	71.8	71.8	71.8	56	55.2	5	15	270	0.00	29.730 
15:45	72.0	72.0	72.0	56	55.4	4	9	270	0.00	29.728 
15:50	72.5	72.5	72.5	54	54.9	5	15	270	0.00	29.728 
15:55	73.0	73.0	73.0	52	54.3	6	24	270	0.00	29.729 
16:00	73.0	73.0	73.0	53	54.8	5	12	270	0.00	29.729 
16:05	72.8	72.8	72.8	52	54.1	6	15	270	0.00	29.729 
16:10	72.3	72.3	72.3	53	54.2	6	17	270	0.00	29.729 
16:15	72.0	72.0	72.0	54	54.4	5	12	270	0.00	29.722 
16:20	72.1	72.1	72.1	54	54.5	5	12	270	0.00	29.727 
16:25	72.3	72.3	72.3	54	54.7	5	17	270	0.00	29.721 
16:30	72.7	72.7	72.7	54	55.1	4	9	248	0.00	29.717 
16:35	72.8	72.8	72.8	53	54.7	4	11	270	0.00	29.717 
16:40	72.5	72.5	72.5	54	54.9	3	6	270	0.00	29.715 
16:45	72.3	72.3	72.3	53	54.2	4	10	270	0.00	29.716 
16:50	72.0	72.0	72.0	53	53.9	4	9	270	0.00	29.716 
16:55	72.1	72.1	72.1	54	54.5	4	11	270	0.00	29.715 
17:00	72.1	72.1	72.1	55	55.0	3	10	270	0.00	29.717 
17:05	72.0	72.0	72.0	54	54.4	3	8	270	0.00	29.718 
17:10	71.6	71.6	71.6	55	54.6	4	9	270	0.00	29.720 
17:15	71.1	71.1	71.1	56	54.6	3	7	270	0.00	29.720 
17:20	70.8	70.8	70.8	56	54.3	3	9	270	0.00	29.722 
17:25	70.6	70.6	70.6	57	54.6	4	8	270	0.00	29.724 
17:30	70.4	70.4	70.4	58	54.9	2	5	270	0.00	29.727 
17:35	69.3	69.3	69.3	62	55.7	2	7	315	0.00	29.732 
17:40	68.1	68.1	68.1	65	55.9	2	4	315	0.00	29.735 
17:45	67.1	67.1	67.1	66	55.4	2	5	338	0.00	29.739 
17:50	66.1	66.1	66.1	68	55.2	3	6	338	0.00	29.743 
17:55	65.5	65.5	65.5	69	55.1	1	6	292	0.00	29.742 
18:00	65.2	65.2	65.2	70	55.2	1	3	315	0.00	29.741 
18:05	64.7	64.7	64.7	70	54.7	1	5	270	0.00	29.740 
18:10	64.5	64.5	64.5	71	54.9	1	3	22	0.00	29.742 
18:15	64.2	64.2	64.2	71	54.6	1	4	0	0.00	29.746 
18:20	64.0	64.0	64.0	72	54.8	0	4	292	0.00	29.744 
18:25	63.7	63.7	63.7	72	54.5	0	2	315	0.00	29.741 
18:30	63.5	63.5	63.5	73	54.7	0	2	338	0.00	29.739 
18:35	63.2	63.2	63.2	73	54.4	1	6	270	0.00	29.742 
18:40	63.1	63.1	63.1	73	54.3	1	2	338	0.00	29.744 
18:45	62.9	62.9	62.9	74	54.5	0	3	338	0.00	29.745 
18:50	62.7	62.7	62.7	75	54.7	0	1	338	0.00	29.743 
18:55	62.6	62.6	62.6	75	54.6	0	2	292	0.00	29.748 
19:00	62.4	62.4	62.4	77	55.1	1	4	292	0.00	29.775 
19:05	61.8	61.8	61.8	81	55.9	4	12	248	0.02	29.784 
19:10	61.0	61.0	61.0	84	56.1	1	4	315	0.05	29.777 
19:15	60.2	60.2	60.2	86	56.0	1	3	248	0.03	29.789 
19:20	59.8	59.8	59.8	87	55.9	0	2	292	0.06	29.789 
19:25	59.6	59.6	59.6	88	56.0	0	3	338	0.03	29.771 
19:30	59.3	59.3	59.3	89	56.1	0	1	338	0.01	29.781 
19:35	59.0	59.0	59.0	90	56.1	0	1	338	0.00	29.778 
19:40	58.7	58.7	58.7	90	55.8	0	3	0	0.00	29.778 
19:45	58.4	58.4	58.4	89	55.2	1	3	0	0.01	29.777 
19:50	58.3	58.3	58.3	88	54.8	1	3	0	0.00	29.785 
19:55	58.0	58.0	58.0	89	54.8	0	2	0	0.01	29.788 
20:00	57.8	57.8	57.8	89	54.6	0	1	0	0.00	29.791 
20:05	57.5	57.5	57.5	89	54.3	0	2	22	0.00	29.791 
20:10	57.2	57.2	57.2	88	53.7	1	3	338	0.01	29.789 
20:15	56.9	56.9	56.9	87	53.1	1	3	0	0.00	29.786 
20:20	56.7	56.7	56.7	88	53.2	0	1	0	0.00	29.789 
20:25	56.5	56.5	56.5	87	52.7	1	5	22	0.00	29.799 
20:30	56.3	56.3	56.3	88	52.8	1	3	22	0.00	29.805 
20:35	56.2	56.2	56.2	88	52.7	0	2	338	0.01	29.808 
20:40	55.9	55.9	55.9	89	52.7	0	1	315	0.01	29.824 
20:45	55.6	55.6	55.6	90	52.7	1	5	0	0.03	29.821 
20:50	55.1	55.1	55.1	90	52.2	2	7	22	0.02	29.821 
20:55	54.5	54.5	54.5	89	51.3	2	9	68	0.01	29.822 
21:00	53.9	53.9	53.9	89	50.7	3	10	90	0.01	29.828 
21:05	53.3	53.3	53.3	88	49.8	4	9	112	0.00	29.838 
21:10	53.2	53.2	53.2	88	49.7	2	5	45	0.01	29.840 
21:15	52.9	52.9	52.9	89	49.7	1	4	90	0.00	29.853 
21:20	52.6	52.6	52.6	89	49.4	1	3	45	0.01	29.854 
21:25	52.2	52.2	52.2	88	48.8	2	9	45	0.00	29.858 
21:30	51.7	51.7	51.7	87	48.0	2	6	45	0.01	29.856 
21:35	50.8	50.8	50.8	80	44.9	3	10	112	0.00	29.858 
21:40	50.4	50.4	50.4	79	44.1	2	7	22	0.00	29.861 
21:45	50.1	50.1	50.1	80	44.2	2	11	0	0.00	29.882 
21:50	49.8	49.8	49.8	81	44.2	1	3	22	0.00	29.890 
21:55	49.6	49.6	49.6	83	44.7	2	7	90	0.00	29.862 
22:00	49.6	49.6	49.6	82	44.3	2	4	112	0.00	29.860 
22:05	49.5	49.5	49.5	83	44.6	1	5	68	0.00	29.865 
22:10	49.4	49.4	49.4	84	44.8	1	5	90	0.00	29.866 
22:15	49.2	49.2	49.2	84	44.6	2	6	45	0.00	29.871 
22:20	49.2	49.2	49.2	84	44.6	1	3	0	0.00	29.875 
22:25	48.9	48.9	48.9	85	44.6	2	5	45	0.00	29.873 
22:30	48.8	48.8	48.8	86	44.8	0	2	0	0.00	29.875 
22:35	48.5	48.5	48.5	84	43.9	2	6	90	0.00	29.883 
22:40	48.2	48.2	48.2	84	43.6	3	7	90	0.01	29.876 
22:45	47.9	47.9	47.9	86	43.9	1	5	112	0.00	29.874 
22:50	47.6	47.6	47.6	87	43.9	1	4	22	0.00	29.875 
22:55	47.1	47.1	47.1	88	43.7	1	4	0	0.00	29.884 
23:00	46.8	46.8	46.8	88	43.4	1	6	22	0.00	29.891 
23:05	46.4	46.4	46.4	89	43.3	1	7	0	0.01	29.889 
23:10	46.1	46.1	46.1	90	43.3	1	4	45	0.01	29.876 
23:15	46.0	46.0	46.0	91	43.5	1	4	45	0.01	29.891 
23:20	45.8	45.8	45.8	91	43.3	3	10	112	0.01	29.896 
23:25	45.7	45.7	45.7	91	43.2	2	6	45	0.02	29.903 
23:30	45.5	45.5	45.5	91	43.0	3	11	90	0.01	29.904 
23:35	45.4	45.4	45.4	91	42.9	2	7	68	0.01	29.915 
23:40	45.2	45.2	45.2	91	42.7	1	5	0	0.00	29.921 
23:45	45.1	45.1	45.1	91	42.6	2	7	45	0.00	29.922 
23:50	44.8	44.8	44.8	91	42.3	2	6	45	0.01	29.920 
23:55	44.6	44.6	44.6	91	42.1	2	6	135	0.03	29.920 

CoCoRaHS
IN-AL-39
A2 Web Hosting
Creative Commons License
GoDaddy
Look for:

loaded 2017-10-18 07:19:50 • last modified 2010-11-18 10:43:29
Privacy PolicyDisclaimer
• wx.awcolley.com is powered by PmWiki v.2002016 •
• all content (unless otherwise noted) © 2017 A W Colley